Time;durP1;ratioP1;P1;durP2;ratioP2;P2;SDS_P1;SDS_P2;PMS_P1;PMS_P2;Temp;Humidity;BMP_temperature;BMP_pressure;BME280_temperature;BME280_humidity;BME280_pressure;Samples;Min_cycle;Max_cycle;Signal;HPM_P1;HPM_P2
2023/04/07 00:00:49;;;;;;;1.13;0.80;;;;;;;1.40;62.00;102483.59;10515610;28;20393;-77
2023/04/07 00:05:53;;;;;;;12.82;1.98;;;;;;;1.26;62.27;102477.06;10519694;28;20032;-78
2023/04/07 00:10:56;;;;;;;3.33;0.90;;;;;;;1.29;62.35;102473.16;10544941;28;20032;-78
2023/04/07 00:15:58;;;;;;;1.02;0.90;;;;;;;1.29;61.95;102475.88;10513010;28;20420;-77
2023/04/07 00:21:01;;;;;;;1.95;0.80;;;;;;;1.26;61.97;102474.34;10537604;28;20046;-78
2023/04/07 00:26:03;;;;;;;2.50;1.10;;;;;;;1.26;62.13;102474.34;10513847;28;20518;-78
2023/04/07 00:31:06;;;;;;;2.05;0.80;;;;;;;1.26;63.01;102468.94;10530053;28;20051;-78
2023/04/07 00:36:08;;;;;;;0.70;0.70;;;;;;;1.28;62.69;102466.06;10551874;28;20472;-78
2023/04/07 00:41:10;;;;;;;1.58;1.10;;;;;;;1.18;62.79;102467.09;10522077;28;20052;-76
2023/04/07 00:46:14;;;;;;;1.42;1.00;;;;;;;1.15;62.54;102470.16;10530012;28;20044;-77
2023/04/07 00:51:18;;;;;;;2.03;1.30;;;;;;;1.10;62.82;102471.72;10543689;28;20032;-76
2023/04/07 00:56:20;;;;;;;2.95;1.02;;;;;;;0.99;63.10;102466.66;10500908;28;20609;-76
2023/04/07 01:01:26;;;;;;;1.88;1.17;;;;;;;1.00;63.02;102469.19;10536576;28;20048;-78
2023/04/07 01:06:33;;;;;;;3.03;1.38;;;;;;;0.95;63.62;102462.63;10502475;28;20531;-76
2023/04/07 01:11:38;;;;;;;3.20;1.10;;;;;;;1.12;63.08;102472.38;10505481;28;20044;-77
2023/04/07 01:16:42;;;;;;;2.33;0.88;;;;;;;0.98;62.95;102464.97;10516898;28;20049;-77
2023/04/07 01:21:46;;;;;;;1.42;0.80;;;;;;;0.93;63.41;102459.25;10504353;28;20499;-77
2023/04/07 01:26:49;;;;;;;3.30;1.17;;;;;;;0.97;63.21;102469.53;10487560;28;20032;-77
2023/04/07 01:31:54;;;;;;;1.80;1.00;;;;;;;0.84;63.45;102466.53;10510792;28;20051;-77
2023/04/07 01:36:58;;;;;;;1.58;1.13;;;;;;;0.82;63.73;102465.84;10476868;28;20056;-77
2023/04/07 01:42:03;;;;;;;1.15;0.82;;;;;;;0.83;63.81;102464.84;10543018;28;20032;-76
2023/04/07 01:47:05;;;;;;;1.88;1.30;;;;;;;0.74;63.95;102461.31;10535337;28;20037;-77
2023/04/07 01:52:08;;;;;;;3.00;1.00;;;;;;;0.62;64.27;102457.28;10557667;28;20045;-78
2023/04/07 01:57:10;;;;;;;1.45;0.93;;;;;;;0.69;64.46;102468.25;10500490;28;20040;-77
2023/04/07 02:02:13;;;;;;;2.45;1.10;;;;;;;0.56;64.78;102472.31;10528888;28;20420;-77
2023/04/07 02:07:24;;;;;;;2.42;0.85;;;;;;;0.47;65.18;102465.22;10494594;28;20119;-77
2023/04/07 02:12:28;;;;;;;1.88;1.08;;;;;;;0.41;65.43;102471.31;10511021;28;20532;-76
2023/04/07 02:17:47;;;;;;;1.13;1.02;;;;;;;0.34;65.28;102467.59;10493774;28;20045;-77
2023/04/07 02:22:50;;;;;;;1.95;1.20;;;;;;;0.35;65.70;102468.44;10536454;28;20045;-77
2023/04/07 02:27:54;;;;;;;4.68;1.15;;;;;;;0.30;65.86;102460.84;10526306;28;20051;-77
2023/04/07 02:32:56;;;;;;;1.98;0.80;;;;;;;0.25;65.82;102458.66;10549679;28;20039;-77
2023/04/07 02:37:58;;;;;;;5.13;1.42;;;;;;;0.21;66.15;102468.13;10534693;28;20063;-76
2023/04/07 02:43:01;;;;;;;2.55;1.63;;;;;;;0.20;66.76;102477.22;10478458;28;20044;-76
2023/04/07 02:48:03;;;;;;;0.75;0.75;;;;;;;0.13;66.32;102480.75;10527811;28;20048;-78
2023/04/07 02:53:05;;;;;;;2.28;0.90;;;;;;;0.12;66.92;102470.97;10510472;28;20043;-78
2023/04/07 02:58:07;;;;;;;4.50;1.10;;;;;;;0.10;66.76;102471.13;10478724;28;20043;-77
2023/04/07 03:03:17;;;;;;;0.73;0.63;;;;;;;0.08;66.85;102470.47;10511535;28;20431;-77
2023/04/07 03:08:32;;;;;;;1.85;1.33;;;;;;;0.15;68.06;102463.38;10496893;28;20040;-77
2023/04/07 03:13:34;;;;;;;1.27;0.98;;;;;;;0.15;67.50;102466.06;10501444;28;20052;-78
2023/04/07 03:18:36;;;;;;;2.65;1.15;;;;;;;0.20;67.63;102463.72;10504079;28;20515;-78
2023/04/07 03:23:40;;;;;;;2.83;1.35;;;;;;;0.13;67.92;102467.25;10526780;28;20036;-78
2023/04/07 03:28:42;;;;;;;3.35;1.30;;;;;;;0.11;68.03;102471.97;10479303;28;20032;-77
2023/04/07 03:33:45;;;;;;;2.17;1.15;;;;;;;0.21;68.50;102464.56;10503196;28;20052;-77
2023/04/07 03:38:47;;;;;;;2.35;1.00;;;;;;;0.60;68.01;102465.56;10498411;28;20048;-78
2023/04/07 03:43:52;;;;;;;2.67;1.40;;;;;;;0.98;66.75;102473.09;10529737;28;20036;-77
2023/04/07 03:48:55;;;;;;;1.95;1.27;;;;;;;1.13;66.61;102468.66;10510175;28;20415;-77
2023/04/07 03:53:58;;;;;;;1.73;1.00;;;;;;;1.22;66.07;102474.88;10528058;28;20112;-76
2023/04/07 03:59:16;;;;;;;2.88;1.45;;;;;;;1.78;64.81;102471.06;10497558;28;20527;-77
2023/04/07 04:04:44;;;;;;;3.45;1.40;;;;;;;2.02;63.46;102470.91;10521637;28;20044;-78
2023/04/07 04:09:50;;;;;;;1.88;1.30;;;;;;;2.29;62.72;102465.97;10494919;28;20049;-78
2023/04/07 04:14:53;;;;;;;1.73;1.25;;;;;;;2.38;61.80;102470.28;10454981;28;20047;-76
2023/04/07 04:19:57;;;;;;;2.22;1.20;;;;;;;2.72;60.78;102467.94;10515810;28;20055;-77
2023/04/07 04:25:21;;;;;;;2.78;1.30;;;;;;;3.27;60.43;102482.09;10486019;28;20528;-78
2023/04/07 04:30:27;;;;;;;2.50;1.45;;;;;;;3.57;58.29;102482.91;10527967;28;20044;-78
2023/04/07 04:35:38;;;;;;;3.42;1.20;;;;;;;3.70;58.07;102472.22;10513384;28;20526;-77
2023/04/07 04:40:52;;;;;;;3.08;1.10;;;;;;;3.94;56.65;102476.44;10534786;28;20062;-76
2023/04/07 04:46:00;;;;;;;2.92;1.30;;;;;;;4.08;56.60;102481.00;10505741;28;20067;-77
2023/04/07 04:51:07;;;;;;;3.17;1.33;;;;;;;4.50;55.86;102479.28;10486714;28;20036;-77
2023/04/07 04:56:10;;;;;;;2.05;1.52;;;;;;;5.22;53.31;102472.72;10437545;28;20045;-78
2023/04/07 05:01:19;;;;;;;2.00;1.38;;;;;;;5.57;53.28;102482.53;10454944;28;20052;-76
2023/04/07 05:06:38;;;;;;;4.03;1.48;;;;;;;5.68;52.02;102473.75;10481355;28;20048;-78
2023/04/07 05:11:46;;;;;;;6.13;1.70;;;;;;;6.14;50.72;102477.69;10510958;28;20045;-77
2023/04/07 05:16:48;;;;;;;4.53;1.50;;;;;;;6.84;49.76;102468.06;10510942;28;20056;-78
2023/04/07 05:21:57;;;;;;;6.82;1.85;;;;;;;7.10;49.76;102478.09;10478179;28;20475;-77
2023/04/07 05:27:00;;;;;;;1.90;1.50;;;;;;;6.73;49.36;102475.00;10535097;28;20063;-77
2023/04/07 05:32:04;;;;;;;7.85;1.65;;;;;;;6.88;49.16;102481.06;10487518;28;20052;-76
2023/04/07 05:37:07;;;;;;;3.63;1.75;;;;;;;7.18;47.92;102481.47;10500524;28;20058;-77
2023/04/07 05:42:10;;;;;;;4.95;1.70;;;;;;;7.67;47.05;102480.03;10527487;28;20063;-77
2023/04/07 05:47:14;;;;;;;7.65;2.42;;;;;;;7.72;46.56;102466.56;10487840;28;20036;-77
2023/04/07 05:52:17;;;;;;;4.68;1.60;;;;;;;7.74;47.20;102474.53;10467073;28;20045;-77
2023/04/07 05:57:27;;;;;;;7.78;1.60;;;;;;;7.81;47.18;102469.91;10513561;28;20507;-77
2023/04/07 06:02:29;;;;;;;5.18;1.85;;;;;;;8.36;46.75;102472.94;10515729;28;20044;-77
2023/04/07 06:07:32;;;;;;;5.43;2.10;;;;;;;9.28;44.19;102471.25;10467942;28;20037;-78
2023/04/07 06:12:35;;;;;;;3.17;1.40;;;;;;;9.07;44.53;102467.88;10484696;28;20059;-78
2023/04/07 06:17:37;;;;;;;3.80;1.90;;;;;;;9.17;43.70;102470.09;10493043;28;20036;-76
2023/04/07 06:22:40;;;;;;;11.00;2.20;;;;;;;9.70;43.11;102474.09;10506674;28;20047;-77
2023/04/07 06:27:43;;;;;;;7.95;2.30;;;;;;;9.22;43.71;102475.75;10498256;28;20041;-77
2023/04/07 06:32:45;;;;;;;12.32;2.47;;;;;;;10.08;42.95;102473.81;10449546;28;20155;-78
2023/04/07 06:37:47;;;;;;;7.93;2.78;;;;;;;9.68;43.24;102474.34;10498578;28;20051;-77
2023/04/07 06:42:50;;;;;;;14.43;4.43;;;;;;;10.16;42.00;102474.31;10496682;28;20040;-77
2023/04/07 06:48:01;;;;;;;10.15;2.60;;;;;;;10.26;42.00;102476.53;10505579;28;20044;-77
2023/04/07 06:53:03;;;;;;;7.95;2.72;;;;;;;10.79;41.50;102473.78;10574598;28;20046;-77
2023/04/07 06:58:05;;;;;;;8.93;3.25;;;;;;;9.84;42.07;102479.19;10546659;28;20041;-75
2023/04/07 07:03:07;;;;;;;9.50;2.60;;;;;;;10.13;42.54;102473.97;10491639;28;20419;-77
2023/04/07 07:08:10;;;;;;;8.82;3.03;;;;;;;11.55;40.58;102471.91;10523590;28;20055;-77
2023/04/07 07:13:12;;;;;;;10.48;2.75;;;;;;;11.73;39.47;102473.66;10519711;28;20493;-77
2023/04/07 07:18:14;;;;;;;17.27;3.25;;;;;;;10.68;40.85;102482.00;10545273;28;20043;-77
2023/04/07 07:23:16;;;;;;;10.60;2.80;;;;;;;10.98;40.77;102484.66;10532425;28;20055;-77
2023/04/07 07:28:20;;;;;;;8.85;2.35;;;;;;;11.64;39.77;102481.47;10559726;28;20412;-77
2023/04/07 07:33:22;;;;;;;7.68;2.45;;;;;;;11.57;39.17;102475.25;10541161;28;20195;-76
2023/04/07 07:38:26;;;;;;;11.02;2.90;;;;;;;11.37;40.28;102480.31;10548371;28;20055;-77
2023/04/07 07:43:28;;;;;;;5.60;2.08;;;;;;;12.26;38.64;102473.31;10550913;28;20044;-76
2023/04/07 07:48:30;;;;;;;13.40;2.55;;;;;;;12.21;38.89;102478.75;10526772;28;20495;-76
2023/04/07 07:53:33;;;;;;;6.72;2.38;;;;;;;13.36;36.65;102462.66;10503292;28;20040;-76
2023/04/07 07:58:36;;;;;;;5.10;2.17;;;;;;;14.28;35.47;102472.88;10537742;28;20041;-76
2023/04/07 08:03:38;;;;;;;4.03;2.10;;;;;;;14.46;34.36;102473.34;10524572;28;20079;-77
2023/04/07 08:08:40;;;;;;;6.55;2.22;;;;;;;13.44;34.80;102473.28;10526800;28;20044;-76
2023/04/07 08:13:45;;;;;;;7.70;2.30;;;;;;;12.68;35.99;102476.53;10530725;28;20056;-77
2023/04/07 08:18:47;;;;;;;7.65;2.03;;;;;;;12.84;36.18;102463.00;10504913;28;20413;-77
2023/04/07 08:23:49;;;;;;;7.68;2.17;;;;;;;12.28;36.72;102465.66;10528556;28;20410;-77
2023/04/07 08:28:52;;;;;;;4.13;1.45;;;;;;;12.50;36.15;102462.19;10514568;28;20045;-76
2023/04/07 08:33:56;;;;;;;5.13;1.48;;;;;;;12.50;36.00;102464.94;10499810;28;20048;-78
2023/04/07 08:39:01;;;;;;;3.85;1.73;;;;;;;12.66;35.58;102472.34;10509265;28;20059;-77
2023/04/07 08:44:03;;;;;;;2.70;1.42;;;;;;;13.52;34.09;102459.84;10524296;28;20037;-80
2023/04/07 08:49:10;;;;;;;1.70;1.00;;;;;;;13.31;33.57;102460.69;10478558;28;20051;-77
2023/04/07 08:54:14;;;;;;;2.28;0.93;;;;;;;13.14;34.05;102449.66;10512048;28;20067;-77
2023/04/07 08:59:17;;;;;;;1.05;0.90;;;;;;;12.93;34.68;102475.28;10529475;28;20534;-77
2023/04/07 09:04:21;;;;;;;2.70;0.90;;;;;;;12.48;34.56;102454.16;10530749;28;20138;-77
2023/04/07 09:09:24;;;;;;;2.00;0.70;;;;;;;12.38;34.97;102451.25;10512389;28;20044;-77
2023/04/07 09:14:26;;;;;;;3.67;0.90;;;;;;;11.22;36.19;102450.56;10510437;28;20056;-77
2023/04/07 09:19:29;;;;;;;2.88;0.90;;;;;;;10.11;37.67;102448.66;10518460;28;20048;-77
2023/04/07 09:24:31;;;;;;;1.15;0.65;;;;;;;9.13;39.34;102454.34;10494632;28;20044;-77
2023/04/07 09:29:34;;;;;;;2.75;0.80;;;;;;;8.41;40.43;102445.75;10528730;28;20048;-78
2023/04/07 09:34:38;;;;;;;2.60;0.90;;;;;;;8.02;41.69;102442.22;10510382;28;20052;-77
2023/04/07 09:39:49;;;;;;;2.45;0.80;;;;;;;7.78;42.41;102432.88;10510583;28;20052;-77
2023/04/07 09:44:52;;;;;;;0.55;0.52;;;;;;;7.75;43.24;102433.31;10528049;28;20412;-76
2023/04/07 09:49:55;;;;;;;2.35;0.70;;;;;;;7.59;42.83;102439.28;10513594;28;20048;-79
2023/04/07 09:54:57;;;;;;;3.30;0.80;;;;;;;7.56;43.54;102421.44;10493400;28;20044;-76
2023/04/07 10:00:00;;;;;;;3.83;1.33;;;;;;;7.76;42.93;102420.50;10516539;28;20432;-78
2023/04/07 10:05:03;;;;;;;0.90;0.70;;;;;;;7.64;42.60;102431.31;10485319;28;20040;-77
2023/04/07 10:10:07;;;;;;;2.70;0.90;;;;;;;7.54;43.83;102418.09;10468519;28;20059;-76
2023/04/07 10:15:15;;;;;;;1.52;1.02;;;;;;;7.71;43.43;102418.44;10485041;28;20041;-81
2023/04/07 10:20:19;;;;;;;2.88;1.20;;;;;;;7.59;44.18;102406.50;10490597;28;20487;-79
2023/04/07 10:25:23;;;;;;;5.80;1.98;;;;;;;7.69;44.17;102423.28;10527679;28;20044;-78
2023/04/07 10:30:29;;;;;;;3.15;1.10;;;;;;;7.68;43.87;102409.84;10509513;28;20048;-79
2023/04/07 10:36:06;;;;;;;4.80;1.40;;;;;;;7.63;44.27;102406.91;10540376;28;20040;-77
2023/04/07 10:41:35;;;;;;;1.42;0.90;;;;;;;7.68;43.58;102409.84;10574204;28;20052;-78
2023/04/07 10:46:47;;;;;;;4.93;1.10;;;;;;;7.62;44.57;102402.50;10506368;28;20045;-77
2023/04/07 10:52:10;;;;;;;1.92;1.13;;;;;;;7.59;45.44;102397.47;10529644;28;20044;-78
2023/04/07 10:57:14;;;;;;;3.22;0.93;;;;;;;7.66;44.44;102396.41;10534225;28;20419;-78
2023/04/07 11:02:23;;;;;;;2.97;1.48;;;;;;;7.60;43.97;102402.72;10517017;28;20044;-77
2023/04/07 11:08:05;;;;;;;1.83;0.90;;;;;;;7.60;43.74;102385.47;10533035;28;20154;-78
2023/04/07 11:13:08;;;;;;;2.33;1.13;;;;;;;7.72;45.20;102384.59;10321861;28;20062;-77
2023/04/07 11:18:19;;;;;;;1.88;1.00;;;;;;;7.67;44.99;102378.94;10480308;28;20082;-78
2023/04/07 11:23:22;;;;;;;1.63;0.88;;;;;;;7.65;45.53;102377.50;10495960;28;20045;-77
2023/04/07 11:28:25;;;;;;;1.85;0.75;;;;;;;7.69;46.01;102376.81;10492410;28;20037;-78
2023/04/07 11:33:30;;;;;;;3.40;1.50;;;;;;;7.67;45.28;102387.13;10533786;28;20055;-78
2023/04/07 11:38:37;;;;;;;3.88;1.35;;;;;;;7.56;46.61;102369.53;10515820;28;20060;-78
2023/04/07 11:43:42;;;;;;;2.13;1.13;;;;;;;7.37;46.90;102370.47;10515473;28;20036;-78
2023/04/07 11:48:46;;;;;;;3.08;0.77;;;;;;;7.33;47.03;102366.53;10503287;28;20419;-80
2023/04/07 11:53:55;;;;;;;1.88;1.05;;;;;;;7.51;47.13;102366.63;10509395;28;20049;-82
2023/04/07 11:59:21;;;;;;;4.25;1.10;;;;;;;7.36;47.03;102370.69;10531676;28;20051;-78
2023/04/07 12:04:24;;;;;;;7.53;1.30;;;;;;;7.29;47.28;102359.81;10552471;28;20048;-78
2023/04/07 12:09:31;;;;;;;1.98;1.00;;;;;;;7.26;48.22;102354.78;10566702;28;20136;-78
2023/04/07 12:14:37;;;;;;;5.50;1.60;;;;;;;7.28;47.93;102354.56;10526696;28;20040;-77
2023/04/07 12:19:39;;;;;;;2.17;0.68;;;;;;;7.19;47.82;102343.06;10517115;28;20443;-80
2023/04/07 12:24:42;;;;;;;7.07;1.80;;;;;;;7.21;48.55;102349.13;10502898;28;20519;-78
2023/04/07 12:29:45;;;;;;;3.75;1.10;;;;;;;7.23;47.49;102352.47;10512472;28;20044;-79
2023/04/07 12:34:48;;;;;;;17.42;2.30;;;;;;;7.19;48.66;102346.63;10522978;28;20056;-79
2023/04/07 12:39:51;;;;;;;3.95;1.45;;;;;;;7.25;48.07;102340.28;10499469;28;20052;-76
2023/04/07 12:44:53;;;;;;;4.15;1.50;;;;;;;7.34;48.00;102345.50;10523237;28;20036;-80
2023/04/07 12:49:55;;;;;;;4.15;1.00;;;;;;;7.27;47.73;102342.78;10494911;28;20048;-80
2023/04/07 12:54:58;;;;;;;2.78;1.10;;;;;;;7.18;47.56;102344.13;10521616;28;20048;-79
2023/04/07 13:00:29;;;;;;;1.98;0.82;;;;;;;7.20;48.92;102342.84;10567155;28;20051;-79
2023/04/07 13:05:35;;;;;;;5.00;1.30;;;;;;;7.17;47.77;102328.78;10508853;28;20058;-79
2023/04/07 13:10:37;;;;;;;3.00;1.40;;;;;;;7.16;48.70;102333.41;10533124;28;20045;-79
2023/04/07 13:15:43;;;;;;;7.45;1.55;;;;;;;7.15;48.08;102318.09;10532324;28;20036;-79
2023/04/07 13:20:46;;;;;;;8.10;2.22;;;;;;;7.28;47.88;102328.09;10529176;28;20041;-78
2023/04/07 13:25:48;;;;;;;4.18;1.42;;;;;;;7.29;47.99;102326.19;10517342;28;20056;-77
2023/04/07 13:30:54;;;;;;;1.75;1.52;;;;;;;7.26;48.19;102316.53;10524596;28;20048;-77
2023/04/07 13:35:56;;;;;;;12.85;5.93;;;;;;;7.22;47.42;102307.97;10510762;28;20044;-78
2023/04/07 13:40:59;;;;;;;4.05;1.20;;;;;;;7.23;48.27;102306.91;10515212;28;20424;-76
2023/04/07 13:46:01;;;;;;;9.20;4.63;;;;;;;7.17;48.20;102320.59;10529066;28;20033;-77
2023/04/07 13:51:07;;;;;;;4.45;1.30;;;;;;;7.08;48.37;102305.50;10540770;28;20044;-78
2023/04/07 13:56:09;;;;;;;2.72;1.05;;;;;;;7.04;47.79;102302.38;10509603;28;20047;-78
2023/04/07 14:01:12;;;;;;;6.28;2.20;;;;;;;7.10;48.10;102308.84;10498531;28;20037;-78
2023/04/07 14:06:47;;;;;;;2.58;0.90;;;;;;;6.99;48.27;102301.38;10527127;28;20051;-76
2023/04/07 14:18:26;;;;;;;4.40;1.58;;;;;;;6.97;47.79;102298.03;10512308;28;20098;-77
2023/04/07 14:24:45;;;;;;;3.17;1.40;;;;;;;6.94;48.13;102294.66;10575913;28;20071;-78
2023/04/07 14:29:51;;;;;;;5.00;1.40;;;;;;;6.81;47.80;102302.91;10572676;28;20036;-77
2023/04/07 14:34:54;;;;;;;7.53;1.08;;;;;;;6.80;48.30;102286.75;10507875;28;20056;-77
2023/04/07 14:39:56;;;;;;;3.38;1.25;;;;;;;6.71;47.87;102290.75;10460183;28;20044;-78
2023/04/07 14:45:00;;;;;;;3.90;1.00;;;;;;;6.63;48.78;102294.56;10466641;28;20459;-76
2023/04/07 14:50:02;;;;;;;2.10;1.40;;;;;;;6.68;48.27;102304.81;10483879;28;20041;-78
2023/04/07 14:55:05;;;;;;;3.72;1.30;;;;;;;6.64;48.50;102286.16;10533561;28;20044;-77
2023/04/07 15:00:12;;;;;;;5.55;1.63;;;;;;;6.79;47.73;102296.81;10484738;28;20056;-76
2023/04/07 15:05:14;;;;;;;2.97;1.00;;;;;;;6.60;47.79;102290.38;10486705;28;20045;-76
2023/04/07 15:10:17;;;;;;;3.20;1.00;;;;;;;6.58;47.99;102272.53;10470657;28;20056;-76
2023/04/07 15:15:19;;;;;;;4.03;1.25;;;;;;;6.46;48.04;102285.19;10493115;28;20044;-77
2023/04/07 15:20:22;;;;;;;3.10;1.38;;;;;;;6.40;48.40;102277.84;10484450;28;20041;-78
2023/04/07 15:25:24;;;;;;;3.85;1.52;;;;;;;6.42;47.97;102270.28;10461376;28;20053;-76
2023/04/07 15:30:26;;;;;;;29.77;3.65;;;;;;;6.53;48.45;102273.19;10505630;28;20029;-77
2023/04/07 15:35:29;;;;;;;4.53;1.23;;;;;;;6.47;47.74;102279.50;10464220;28;20052;-76
2023/04/07 15:40:35;;;;;;;7.18;1.17;;;;;;;6.37;47.93;102264.63;10492662;28;20052;-77
2023/04/07 15:45:40;;;;;;;6.40;1.50;;;;;;;6.32;48.21;102274.28;10461334;28;20106;-80
2023/04/07 15:50:48;;;;;;;2.80;1.00;;;;;;;6.22;46.67;102284.78;10505159;28;20040;-78
2023/04/07 15:55:50;;;;;;;2.28;0.80;;;;;;;6.07;47.19;102272.44;10499267;28;20044;-79
2023/04/07 16:00:52;;;;;;;3.20;1.02;;;;;;;6.09;46.71;102282.09;10512201;28;20400;-78
2023/04/07 16:05:54;;;;;;;5.53;1.88;;;;;;;6.05;46.45;102280.81;10528093;28;20514;-78
2023/04/07 16:10:56;;;;;;;6.38;1.08;;;;;;;6.06;46.37;102287.94;10542420;28;20063;-79
2023/04/07 16:15:59;;;;;;;6.95;1.25;;;;;;;6.05;46.73;102289.00;10476786;28;20045;-79
2023/04/07 16:21:01;;;;;;;5.47;1.67;;;;;;;6.08;46.56;102295.94;10491416;28;20040;-79
2023/04/07 16:26:03;;;;;;;6.28;1.30;;;;;;;5.90;46.18;102297.41;10552316;28;20036;-78
2023/04/07 16:31:07;;;;;;;5.40;1.77;;;;;;;5.82;46.56;102291.28;10521361;28;20403;-77
2023/04/07 16:36:09;;;;;;;4.10;1.30;;;;;;;5.80;46.66;102298.84;10509038;28;20040;-78
2023/04/07 16:41:11;;;;;;;2.47;0.90;;;;;;;5.69;46.43;102303.00;10509010;28;20044;-77
2023/04/07 16:46:14;;;;;;;6.38;2.00;;;;;;;5.74;46.64;102320.41;10522066;28;20036;-79
2023/04/07 16:51:16;;;;;;;4.32;1.00;;;;;;;5.53;46.54;102306.97;10499121;28;20591;-78
2023/04/07 16:56:20;;;;;;;6.25;1.52;;;;;;;5.36;46.91;102313.84;10510884;28;20372;-77
2023/04/07 17:01:22;;;;;;;3.28;1.40;;;;;;;5.23;46.54;102311.09;10513435;28;20060;-78
2023/04/07 17:06:26;;;;;;;6.03;1.83;;;;;;;5.13;46.83;102312.31;10488341;28;20048;-77
2023/04/07 17:11:28;;;;;;;6.47;1.55;;;;;;;5.02;47.55;102320.22;10504683;28;20048;-78
2023/04/07 17:16:30;;;;;;;4.97;1.65;;;;;;;4.98;47.75;102316.22;10549296;28;20039;-77
2023/04/07 17:21:32;;;;;;;4.13;1.48;;;;;;;4.88;47.53;102318.50;10552507;28;20407;-76
2023/04/07 17:26:35;;;;;;;5.05;1.75;;;;;;;4.73;47.86;102333.06;10507580;28;20045;-77
2023/04/07 17:31:37;;;;;;;3.95;1.35;;;;;;;4.62;47.86;102327.34;10525182;28;20520;-77
2023/04/07 17:36:40;;;;;;;4.47;1.73;;;;;;;4.48;48.68;102329.13;10490656;28;20057;-78
2023/04/07 17:41:42;;;;;;;2.20;1.33;;;;;;;4.49;48.80;102328.09;10457830;28;20044;-77
2023/04/07 17:46:44;;;;;;;5.47;1.67;;;;;;;4.40;49.08;102337.47;10445356;28;20045;-79
2023/04/07 17:51:47;;;;;;;7.40;1.45;;;;;;;4.33;48.94;102340.13;10467220;28;20037;-79
2023/04/07 17:56:49;;;;;;;2.42;1.30;;;;;;;4.31;49.48;102344.06;10457627;28;20029;-79
2023/04/07 18:01:51;;;;;;;3.85;1.52;;;;;;;4.34;49.50;102338.22;10450955;28;20032;-78
2023/04/07 18:06:54;;;;;;;4.25;1.65;;;;;;;4.26;49.60;102358.25;10463229;28;20032;-78
2023/04/07 18:11:56;;;;;;;6.70;1.85;;;;;;;4.08;49.81;102349.75;10441626;28;20064;-78
2023/04/07 18:16:59;;;;;;;4.35;1.58;;;;;;;3.97;50.29;102353.00;10470121;28;20028;-77
2023/04/07 18:22:01;;;;;;;10.73;1.70;;;;;;;3.97;50.25;102356.53;10476527;28;20047;-78
2023/04/07 18:27:03;;;;;;;6.65;1.52;;;;;;;3.86;51.35;102357.94;10473354;28;20436;-78
2023/04/07 18:32:06;;;;;;;4.63;1.65;;;;;;;3.76;51.08;102356.56;10525408;28;20112;-78
2023/04/07 18:37:08;;;;;;;4.38;1.83;;;;;;;3.63;51.69;102358.09;10515944;28;20053;-78
2023/04/07 18:42:11;;;;;;;3.13;1.70;;;;;;;3.53;51.81;102352.16;10536457;28;20136;-78
2023/04/07 18:47:13;;;;;;;2.90;1.75;;;;;;;3.43;52.08;102358.94;10524541;28;20519;-79
2023/04/07 18:52:15;;;;;;;9.43;2.20;;;;;;;3.36;52.92;102352.59;10509534;28;20043;-78
2023/04/07 18:57:18;;;;;;;4.43;1.60;;;;;;;3.29;52.74;102345.19;10523535;28;20048;-79
2023/04/07 19:02:20;;;;;;;3.38;1.50;;;;;;;3.26;53.08;102345.59;10528397;28;20032;-81
2023/04/07 19:07:25;;;;;;;2.97;1.77;;;;;;;3.20;53.12;102346.38;10512282;28;20040;-76
2023/04/07 19:12:27;;;;;;;4.82;1.77;;;;;;;3.16;53.54;102344.22;10536085;28;20041;-76
2023/04/07 19:17:30;;;;;;;5.13;1.70;;;;;;;3.07;54.10;102340.78;10525851;28;20033;-77
2023/04/07 19:22:32;;;;;;;4.38;1.48;;;;;;;3.06;53.93;102339.09;10529194;28;20071;-79
2023/04/07 19:27:38;;;;;;;6.35;1.70;;;;;;;3.01;54.03;102338.84;10507775;28;20032;-78
2023/04/07 19:32:41;;;;;;;2.47;1.58;;;;;;;2.97;54.26;102343.81;10487114;28;20523;-78
2023/04/07 19:37:43;;;;;;;6.40;1.80;;;;;;;3.01;54.83;102349.69;10498437;28;20041;-77
2023/04/07 19:42:46;;;;;;;11.30;2.05;;;;;;;2.90;55.10;102334.72;10514433;28;20310;-78
2023/04/07 19:47:48;;;;;;;3.50;1.90;;;;;;;2.97;55.20;102346.50;10495965;28;20134;-79
2023/04/07 19:52:52;;;;;;;8.05;1.65;;;;;;;2.98;55.34;102336.50;10514940;28;20259;-79
2023/04/07 19:57:54;;;;;;;3.92;1.80;;;;;;;3.07;55.46;102346.19;10488861;28;20404;-78
2023/04/07 20:02:56;;;;;;;7.00;2.00;;;;;;;2.93;55.15;102345.19;10518315;28;20046;-78
2023/04/07 20:08:00;;;;;;;7.13;2.10;;;;;;;2.91;55.62;102339.13;10506555;28;20531;-77
2023/04/07 20:13:02;;;;;;;6.95;2.03;;;;;;;2.81;55.84;102340.44;10540676;28;20463;-78
2023/04/07 20:18:05;;;;;;;4.80;2.30;;;;;;;2.76;55.98;102335.56;10526544;28;20032;-81
2023/04/07 20:23:07;;;;;;;6.18;2.00;;;;;;;2.68;55.92;102344.66;10527443;28;20047;-77
2023/04/07 20:28:09;;;;;;;5.72;1.80;;;;;;;2.60;56.68;102343.88;10537053;28;20033;-78
2023/04/07 20:33:11;;;;;;;7.43;2.30;;;;;;;2.64;56.66;102332.50;10518370;28;20048;-78
2023/04/07 20:38:13;;;;;;;5.45;1.80;;;;;;;2.68;57.06;102338.38;10510060;28;20515;-78
2023/04/07 20:43:17;;;;;;;4.82;2.30;;;;;;;2.63;56.77;102344.38;10490880;28;20037;-78
2023/04/07 20:48:25;;;;;;;6.85;2.28;;;;;;;2.56;57.03;102338.00;10545710;28;20118;-79
2023/04/07 20:53:27;;;;;;;7.78;2.00;;;;;;;2.53;57.11;102343.81;10517381;28;20056;-79
2023/04/07 20:58:29;;;;;;;9.02;2.53;;;;;;;2.55;57.73;102336.31;10522017;28;20048;-78
2023/04/07 21:03:32;;;;;;;9.45;2.20;;;;;;;2.59;57.67;102339.50;10535458;28;20040;-78
2023/04/07 21:08:34;;;;;;;4.30;1.63;;;;;;;2.56;57.69;102340.72;10513880;28;20043;-78
2023/04/07 21:13:36;;;;;;;8.38;2.50;;;;;;;2.60;57.75;102343.88;10487478;28;20029;-78
2023/04/07 21:18:38;;;;;;;6.18;2.00;;;;;;;2.57;57.52;102339.69;10516848;28;20043;-78
2023/04/07 21:23:40;;;;;;;8.07;2.38;;;;;;;2.65;57.40;102339.63;10517105;28;20045;-79
2023/04/07 21:28:42;;;;;;;5.10;1.80;;;;;;;2.62;57.24;102345.41;10516994;28;20063;-79
2023/04/07 21:33:46;;;;;;;8.48;2.28;;;;;;;2.54;56.93;102344.66;10470673;28;20045;-78
2023/04/07 21:38:49;;;;;;;5.32;1.60;;;;;;;2.56;56.33;102348.84;10490628;28;20064;-78
2023/04/07 21:43:51;;;;;;;4.05;1.52;;;;;;;2.59;56.31;102344.91;10501103;28;20595;-78
2023/04/07 21:48:54;;;;;;;9.48;1.88;;;;;;;2.69;56.84;102342.78;10525869;28;20032;-77
2023/04/07 21:53:56;;;;;;;5.03;1.73;;;;;;;2.68;56.49;102336.53;10512345;28;20044;-76
2023/04/07 21:58:59;;;;;;;7.47;2.17;;;;;;;2.57;56.71;102342.41;10504331;28;20048;-77
2023/04/07 22:04:01;;;;;;;4.13;1.70;;;;;;;2.48;56.58;102348.94;10501655;28;20048;-77
2023/04/07 22:09:05;;;;;;;8.18;1.85;;;;;;;2.60;57.17;102343.88;10519331;28;20032;-79
2023/04/07 22:14:07;;;;;;;3.78;1.77;;;;;;;2.65;57.20;102346.91;10486108;28;20485;-78
2023/04/07 22:19:09;;;;;;;5.25;2.00;;;;;;;2.61;56.76;102341.03;10506717;28;20045;-79
2023/04/07 22:24:12;;;;;;;5.75;1.70;;;;;;;2.62;56.45;102342.69;10524696;28;20044;-79
2023/04/07 22:29:14;;;;;;;5.50;1.88;;;;;;;2.55;56.82;102336.31;10504120;28;20380;-80
2023/04/07 22:34:17;;;;;;;7.13;1.73;;;;;;;2.51;56.81;102339.59;10545374;28;20041;-78
2023/04/07 22:39:19;;;;;;;6.00;2.55;;;;;;;2.42;57.32;102347.81;10517719;28;20049;-79
2023/04/07 22:44:21;;;;;;;5.95;1.98;;;;;;;2.47;57.39;102333.72;10473402;28;20051;-80
2023/04/07 22:49:24;;;;;;;5.93;1.88;;;;;;;2.59;57.66;102334.91;10526882;28;20044;-79
2023/04/07 22:54:26;;;;;;;6.57;1.77;;;;;;;2.61;57.14;102335.59;10519790;28;20036;-78
2023/04/07 22:59:29;;;;;;;5.60;2.00;;;;;;;2.58;56.61;102330.53;10522269;28;20033;-79
2023/04/07 23:04:31;;;;;;;7.85;3.22;;;;;;;2.39;56.97;102331.09;10552243;28;20491;-79
2023/04/07 23:09:35;;;;;;;7.13;2.45;;;;;;;2.29;57.31;102327.81;10515007;28;20040;-78
2023/04/07 23:14:37;;;;;;;4.40;2.10;;;;;;;2.29;57.75;102319.69;10514767;28;20043;-78
2023/04/07 23:19:39;;;;;;;4.47;2.10;;;;;;;2.46;57.64;102328.50;10497433;28;20046;-78
2023/04/07 23:24:42;;;;;;;6.97;2.10;;;;;;;2.37;57.39;102316.88;10529497;28;20036;-77
2023/04/07 23:29:44;;;;;;;5.05;1.63;;;;;;;2.45;57.78;102314.09;10473946;28;20037;-78
2023/04/07 23:34:50;;;;;;;5.00;2.10;;;;;;;2.46;57.18;102314.94;10524905;28;20036;-77
2023/04/07 23:39:52;;;;;;;6.85;2.25;;;;;;;2.51;57.41;102318.78;10523485;28;20052;-79